sensor_id;sensor_type;location;lat;lon;timestamp;P1;durP1;ratioP1;P2;durP2;ratioP2
53315;SDS011;39204;53.896;11.432;2023-05-07T05:16:53;14.05;;;8.15;;
53315;SDS011;39204;53.896;11.432;2023-05-07T05:18:24;14.52;;;7.88;;
53315;SDS011;39204;53.896;11.432;2023-05-07T05:19:54;11.20;;;7.82;;
53315;SDS011;39204;53.896;11.432;2023-05-07T05:21:24;13.75;;;7.90;;
53315;SDS011;39204;53.896;11.432;2023-05-07T05:22:54;12.27;;;7.32;;
53315;SDS011;39204;53.896;11.432;2023-05-07T05:24:25;11.40;;;7.50;;
53315;SDS011;39204;53.896;11.432;2023-05-07T05:25:56;11.25;;;7.95;;
53315;SDS011;39204;53.896;11.432;2023-05-07T05:27:29;12.10;;;7.28;;
53315;SDS011;39204;53.896;11.432;2023-05-07T05:29:00;12.05;;;7.43;;
53315;SDS011;39204;53.896;11.432;2023-05-07T05:30:30;11.40;;;7.22;;
53315;SDS011;39204;53.896;11.432;2023-05-07T05:32:00;10.00;;;7.07;;
53315;SDS011;39204;53.896;11.432;2023-05-07T05:33:31;11.55;;;7.32;;
53315;SDS011;39204;53.896;11.432;2023-05-07T05:35:01;14.50;;;7.03;;
53315;SDS011;39204;53.896;11.432;2023-05-07T05:36:31;12.25;;;8.10;;
53315;SDS011;39204;53.896;11.432;2023-05-07T05:38:02;11.77;;;7.80;;
53315;SDS011;39204;53.896;11.432;2023-05-07T05:39:32;9.38;;;7.10;;
53315;SDS011;39204;53.896;11.432;2023-05-07T05:41:03;11.18;;;7.65;;
53315;SDS011;39204;53.896;11.432;2023-05-07T05:42:33;11.50;;;7.53;;
53315;SDS011;39204;53.896;11.432;2023-05-07T05:44:03;14.32;;;7.82;;
53315;SDS011;39204;53.896;11.432;2023-05-07T05:45:34;11.25;;;7.43;;
53315;SDS011;39204;53.896;11.432;2023-05-07T05:47:04;12.23;;;7.60;;
53315;SDS011;39204;53.896;11.432;2023-05-07T05:48:35;11.18;;;7.10;;
53315;SDS011;39204;53.896;11.432;2023-05-07T05:50:05;11.57;;;7.13;;
53315;SDS011;39204;53.896;11.432;2023-05-07T05:51:37;12.13;;;7.35;;
53315;SDS011;39204;53.896;11.432;2023-05-07T05:53:07;10.25;;;6.25;;
53315;SDS011;39204;53.896;11.432;2023-05-07T05:54:37;12.32;;;6.53;;
53315;SDS011;39204;53.896;11.432;2023-05-07T05:56:08;11.40;;;7.03;;
53315;SDS011;39204;53.896;11.432;2023-05-07T05:57:38;11.68;;;6.90;;
53315;SDS011;39204;53.896;11.432;2023-05-07T05:59:09;10.70;;;7.10;;
53315;SDS011;39204;53.896;11.432;2023-05-07T06:00:40;9.68;;;6.60;;
53315;SDS011;39204;53.896;11.432;2023-05-07T06:02:10;12.05;;;7.03;;
53315;SDS011;39204;53.896;11.432;2023-05-07T06:03:40;10.80;;;7.10;;
53315;SDS011;39204;53.896;11.432;2023-05-07T06:05:11;9.75;;;6.93;;
53315;SDS011;39204;53.896;11.432;2023-05-07T06:06:41;10.43;;;6.60;;
53315;SDS011;39204;53.896;11.432;2023-05-07T06:08:11;12.75;;;6.85;;
53315;SDS011;39204;53.896;11.432;2023-05-07T06:09:41;10.30;;;6.30;;
53315;SDS011;39204;53.896;11.432;2023-05-07T06:11:11;12.43;;;6.60;;
53315;SDS011;39204;53.896;11.432;2023-05-07T06:12:42;10.90;;;6.25;;
53315;SDS011;39204;53.896;11.432;2023-05-07T06:14:12;10.23;;;6.90;;
53315;SDS011;39204;53.896;11.432;2023-05-07T06:15:42;12.88;;;7.15;;
53315;SDS011;39204;53.896;11.432;2023-05-07T06:17:15;10.43;;;6.15;;
53315;SDS011;39204;53.896;11.432;2023-05-07T06:18:46;8.70;;;6.22;;
53315;SDS011;39204;53.896;11.432;2023-05-07T06:20:16;12.27;;;6.85;;
53315;SDS011;39204;53.896;11.432;2023-05-07T06:21:47;8.88;;;5.78;;
53315;SDS011;39204;53.896;11.432;2023-05-07T06:23:17;10.88;;;5.78;;
53315;SDS011;39204;53.896;11.432;2023-05-07T06:24:47;11.88;;;6.28;;
53315;SDS011;39204;53.896;11.432;2023-05-07T06:26:17;10.52;;;5.78;;
53315;SDS011;39204;53.896;11.432;2023-05-07T06:27:48;11.52;;;6.32;;
53315;SDS011;39204;53.896;11.432;2023-05-07T06:29:18;9.60;;;6.32;;
53315;SDS011;39204;53.896;11.432;2023-05-07T06:30:48;10.93;;;6.82;;
53315;SDS011;39204;53.896;11.432;2023-05-07T06:32:19;10.13;;;6.30;;
53315;SDS011;39204;53.896;11.432;2023-05-07T06:33:50;10.05;;;6.53;;
53315;SDS011;39204;53.896;11.432;2023-05-07T06:35:20;10.60;;;6.22;;
53315;SDS011;39204;53.896;11.432;2023-05-07T06:36:50;8.70;;;6.40;;
53315;SDS011;39204;53.896;11.432;2023-05-07T06:38:20;13.32;;;7.38;;
53315;SDS011;39204;53.896;11.432;2023-05-07T06:39:51;9.68;;;6.82;;
53315;SDS011;39204;53.896;11.432;2023-05-07T06:41:21;15.50;;;6.93;;
53315;SDS011;39204;53.896;11.432;2023-05-07T06:42:51;11.70;;;6.80;;
53315;SDS011;39204;53.896;11.432;2023-05-07T06:44:22;8.50;;;6.32;;
53315;SDS011;39204;53.896;11.432;2023-05-07T06:45:52;13.63;;;6.82;;
53315;SDS011;39204;53.896;11.432;2023-05-07T06:47:22;11.05;;;6.85;;
53315;SDS011;39204;53.896;11.432;2023-05-07T06:48:52;11.00;;;6.63;;
53315;SDS011;39204;53.896;11.432;2023-05-07T06:50:23;8.48;;;6.28;;
53315;SDS011;39204;53.896;11.432;2023-05-07T06:51:53;10.35;;;6.45;;
53315;SDS011;39204;53.896;11.432;2023-05-07T06:53:23;12.15;;;6.80;;
53315;SDS011;39204;53.896;11.432;2023-05-07T06:54:54;7.95;;;5.45;;
53315;SDS011;39204;53.896;11.432;2023-05-07T06:56:24;9.73;;;5.85;;
53315;SDS011;39204;53.896;11.432;2023-05-07T06:57:55;9.10;;;6.03;;
53315;SDS011;39204;53.896;11.432;2023-05-07T06:59:25;8.80;;;5.40;;
53315;SDS011;39204;53.896;11.432;2023-05-07T07:00:55;11.23;;;5.95;;
53315;SDS011;39204;53.896;11.432;2023-05-07T07:02:25;8.15;;;5.40;;
53315;SDS011;39204;53.896;11.432;2023-05-07T07:03:56;9.68;;;5.45;;
53315;SDS011;39204;53.896;11.432;2023-05-07T07:05:26;6.20;;;5.32;;
53315;SDS011;39204;53.896;11.432;2023-05-07T07:06:56;11.00;;;5.55;;
53315;SDS011;39204;53.896;11.432;2023-05-07T07:08:27;8.57;;;5.45;;
53315;SDS011;39204;53.896;11.432;2023-05-07T07:09:57;9.15;;;6.03;;
53315;SDS011;39204;53.896;11.432;2023-05-07T07:11:27;7.80;;;5.63;;
53315;SDS011;39204;53.896;11.432;2023-05-07T07:12:57;8.98;;;5.55;;
53315;SDS011;39204;53.896;11.432;2023-05-07T07:14:28;8.45;;;5.38;;
53315;SDS011;39204;53.896;11.432;2023-05-07T07:15:58;8.15;;;5.68;;
53315;SDS011;39204;53.896;11.432;2023-05-07T07:17:29;6.97;;;5.05;;
53315;SDS011;39204;53.896;11.432;2023-05-07T07:19:00;7.22;;;5.20;;
53315;SDS011;39204;53.896;11.432;2023-05-07T07:20:30;7.32;;;4.63;;
53315;SDS011;39204;53.896;11.432;2023-05-07T07:22:00;8.63;;;5.32;;
53315;SDS011;39204;53.896;11.432;2023-05-07T07:23:32;7.68;;;5.45;;
53315;SDS011;39204;53.896;11.432;2023-05-07T07:25:02;6.68;;;5.20;;
53315;SDS011;39204;53.896;11.432;2023-05-07T07:26:33;10.77;;;5.10;;
53315;SDS011;39204;53.896;11.432;2023-05-07T07:28:03;7.05;;;5.07;;
53315;SDS011;39204;53.896;11.432;2023-05-07T07:29:35;5.95;;;4.45;;
53315;SDS011;39204;53.896;11.432;2023-05-07T07:31:05;6.43;;;4.72;;
53315;SDS011;39204;53.896;11.432;2023-05-07T07:32:35;6.50;;;4.68;;
53315;SDS011;39204;53.896;11.432;2023-05-07T07:34:07;9.38;;;4.43;;
53315;SDS011;39204;53.896;11.432;2023-05-07T07:35:37;7.60;;;4.38;;
53315;SDS011;39204;53.896;11.432;2023-05-07T07:37:08;9.15;;;4.80;;
53315;SDS011;39204;53.896;11.432;2023-05-07T07:38:38;4.88;;;4.00;;
53315;SDS011;39204;53.896;11.432;2023-05-07T07:40:08;6.97;;;4.65;;
53315;SDS011;39204;53.896;11.432;2023-05-07T07:41:39;5.30;;;3.70;;
53315;SDS011;39204;53.896;11.432;2023-05-07T07:43:09;6.28;;;4.10;;
53315;SDS011;39204;53.896;11.432;2023-05-07T07:44:40;5.65;;;3.97;;
53315;SDS011;39204;53.896;11.432;2023-05-07T07:46:10;8.63;;;5.00;;
53315;SDS011;39204;53.896;11.432;2023-05-07T07:47:40;9.77;;;4.60;;
53315;SDS011;39204;53.896;11.432;2023-05-07T07:49:10;5.45;;;4.40;;
53315;SDS011;39204;53.896;11.432;2023-05-07T07:50:41;6.38;;;3.83;;
53315;SDS011;39204;53.896;11.432;2023-05-07T07:52:11;7.07;;;4.25;;
53315;SDS011;39204;53.896;11.432;2023-05-07T07:53:41;5.05;;;3.85;;
53315;SDS011;39204;53.896;11.432;2023-05-07T07:55:12;5.78;;;3.67;;
53315;SDS011;39204;53.896;11.432;2023-05-07T07:56:42;6.00;;;4.13;;
53315;SDS011;39204;53.896;11.432;2023-05-07T07:58:12;5.28;;;3.60;;
53315;SDS011;39204;53.896;11.432;2023-05-07T07:59:43;5.13;;;3.53;;
53315;SDS011;39204;53.896;11.432;2023-05-07T08:01:13;4.97;;;3.97;;
53315;SDS011;39204;53.896;11.432;2023-05-07T08:02:43;3.95;;;3.40;;
53315;SDS011;39204;53.896;11.432;2023-05-07T08:04:13;7.93;;;3.78;;
53315;SDS011;39204;53.896;11.432;2023-05-07T08:05:44;7.05;;;3.88;;
53315;SDS011;39204;53.896;11.432;2023-05-07T08:07:14;4.63;;;3.13;;
53315;SDS011;39204;53.896;11.432;2023-05-07T08:08:44;6.57;;;4.05;;
53315;SDS011;39204;53.896;11.432;2023-05-07T08:10:15;5.53;;;4.03;;
53315;SDS011;39204;53.896;11.432;2023-05-07T08:11:50;6.35;;;3.83;;
53315;SDS011;39204;53.896;11.432;2023-05-07T08:13:21;4.10;;;3.38;;
53315;SDS011;39204;53.896;11.432;2023-05-07T08:14:51;7.80;;;3.90;;
53315;SDS011;39204;53.896;11.432;2023-05-07T08:16:21;7.47;;;3.70;;
53315;SDS011;39204;53.896;11.432;2023-05-07T08:17:52;4.38;;;3.35;;
53315;SDS011;39204;53.896;11.432;2023-05-07T08:19:22;5.13;;;3.35;;
53315;SDS011;39204;53.896;11.432;2023-05-07T08:20:53;9.80;;;3.58;;
53315;SDS011;39204;53.896;11.432;2023-05-07T08:22:23;5.85;;;3.65;;
53315;SDS011;39204;53.896;11.432;2023-05-07T08:23:53;5.60;;;3.80;;
53315;SDS011;39204;53.896;11.432;2023-05-07T08:25:23;4.47;;;3.40;;
53315;SDS011;39204;53.896;11.432;2023-05-07T08:26:54;5.88;;;3.65;;
53315;SDS011;39204;53.896;11.432;2023-05-07T08:28:24;7.82;;;3.22;;
53315;SDS011;39204;53.896;11.432;2023-05-07T08:29:54;4.85;;;3.10;;
53315;SDS011;39204;53.896;11.432;2023-05-07T08:31:25;4.88;;;3.17;;
53315;SDS011;39204;53.896;11.432;2023-05-07T08:32:55;6.63;;;3.20;;
53315;SDS011;39204;53.896;11.432;2023-05-07T08:34:25;5.30;;;3.28;;
53315;SDS011;39204;53.896;11.432;2023-05-07T08:35:56;4.90;;;3.30;;
53315;SDS011;39204;53.896;11.432;2023-05-07T08:37:26;7.13;;;3.42;;
53315;SDS011;39204;53.896;11.432;2023-05-07T08:38:57;4.18;;;3.05;;
53315;SDS011;39204;53.896;11.432;2023-05-07T08:40:27;4.90;;;2.95;;
53315;SDS011;39204;53.896;11.432;2023-05-07T08:41:59;5.70;;;3.33;;
53315;SDS011;39204;53.896;11.432;2023-05-07T08:43:32;6.82;;;3.28;;
53315;SDS011;39204;53.896;11.432;2023-05-07T08:45:03;5.45;;;3.40;;
53315;SDS011;39204;53.896;11.432;2023-05-07T08:46:38;6.20;;;3.00;;
53315;SDS011;39204;53.896;11.432;2023-05-07T08:48:10;7.10;;;3.22;;
53315;SDS011;39204;53.896;11.432;2023-05-07T08:49:45;4.65;;;3.08;;
53315;SDS011;39204;53.896;11.432;2023-05-07T08:51:16;3.85;;;2.80;;
53315;SDS011;39204;53.896;11.432;2023-05-07T08:52:48;3.67;;;2.80;;
53315;SDS011;39204;53.896;11.432;2023-05-07T08:54:18;5.65;;;3.22;;
53315;SDS011;39204;53.896;11.432;2023-05-07T08:55:51;3.55;;;2.75;;
53315;SDS011;39204;53.896;11.432;2023-05-07T08:57:21;4.10;;;2.88;;
53315;SDS011;39204;53.896;11.432;2023-05-07T08:58:53;3.38;;;2.80;;
53315;SDS011;39204;53.896;11.432;2023-05-07T09:00:28;6.38;;;2.90;;
53315;SDS011;39204;53.896;11.432;2023-05-07T09:01:58;4.15;;;2.60;;
53315;SDS011;39204;53.896;11.432;2023-05-07T09:03:30;4.88;;;2.75;;
53315;SDS011;39204;53.896;11.432;2023-05-07T09:05:00;3.40;;;2.90;;
53315;SDS011;39204;53.896;11.432;2023-05-07T09:06:30;4.45;;;2.78;;
53315;SDS011;39204;53.896;11.432;2023-05-07T09:08:05;3.28;;;2.40;;
53315;SDS011;39204;53.896;11.432;2023-05-07T09:09:37;3.90;;;2.35;;
53315;SDS011;39204;53.896;11.432;2023-05-07T09:11:07;2.88;;;2.13;;
53315;SDS011;39204;53.896;11.432;2023-05-07T09:12:37;3.20;;;2.10;;
53315;SDS011;39204;53.896;11.432;2023-05-07T09:14:09;2.83;;;2.53;;
53315;SDS011;39204;53.896;11.432;2023-05-07T09:15:39;3.45;;;2.40;;
53315;SDS011;39204;53.896;11.432;2023-05-07T09:17:09;6.30;;;2.65;;
53315;SDS011;39204;53.896;11.432;2023-05-07T09:18:40;4.10;;;2.42;;
53315;SDS011;39204;53.896;11.432;2023-05-07T09:20:11;2.33;;;2.13;;
53315;SDS011;39204;53.896;11.432;2023-05-07T09:21:42;3.95;;;2.25;;
53315;SDS011;39204;53.896;11.432;2023-05-07T09:23:12;4.88;;;2.33;;
53315;SDS011;39204;53.896;11.432;2023-05-07T09:24:47;5.28;;;2.22;;
53315;SDS011;39204;53.896;11.432;2023-05-07T09:26:18;3.05;;;2.15;;
53315;SDS011;39204;53.896;11.432;2023-05-07T09:27:50;3.95;;;2.20;;
53315;SDS011;39204;53.896;11.432;2023-05-07T09:29:21;4.32;;;2.30;;
53315;SDS011;39204;53.896;11.432;2023-05-07T09:30:51;2.90;;;2.42;;
53315;SDS011;39204;53.896;11.432;2023-05-07T09:32:22;3.20;;;2.47;;
53315;SDS011;39204;53.896;11.432;2023-05-07T09:33:52;3.63;;;2.72;;
53315;SDS011;39204;53.896;11.432;2023-05-07T09:35:23;4.15;;;2.50;;
53315;SDS011;39204;53.896;11.432;2023-05-07T09:36:58;4.22;;;3.20;;
53315;SDS011;39204;53.896;11.432;2023-05-07T09:38:31;3.60;;;2.35;;
53315;SDS011;39204;53.896;11.432;2023-05-07T09:40:02;6.00;;;2.40;;
53315;SDS011;39204;53.896;11.432;2023-05-07T09:41:33;4.30;;;2.17;;
53315;SDS011;39204;53.896;11.432;2023-05-07T09:44:43;2.90;;;2.17;;
53315;SDS011;39204;53.896;11.432;2023-05-07T09:46:14;3.15;;;2.33;;
53315;SDS011;39204;53.896;11.432;2023-05-07T09:47:46;3.13;;;2.60;;
53315;SDS011;39204;53.896;11.432;2023-05-07T09:49:22;5.03;;;2.58;;
53315;SDS011;39204;53.896;11.432;2023-05-07T09:50:55;5.13;;;2.45;;
53315;SDS011;39204;53.896;11.432;2023-05-07T09:52:28;3.90;;;2.38;;
53315;SDS011;39204;53.896;11.432;2023-05-07T09:54:03;4.43;;;2.47;;
53315;SDS011;39204;53.896;11.432;2023-05-07T09:55:34;4.85;;;2.40;;
53315;SDS011;39204;53.896;11.432;2023-05-07T09:57:05;3.03;;;2.30;;
53315;SDS011;39204;53.896;11.432;2023-05-07T09:58:36;3.30;;;2.22;;
53315;SDS011;39204;53.896;11.432;2023-05-07T10:00:08;4.32;;;2.60;;
53315;SDS011;39204;53.896;11.432;2023-05-07T10:01:43;3.22;;;2.42;;
53315;SDS011;39204;53.896;11.432;2023-05-07T10:03:14;2.47;;;2.00;;
53315;SDS011;39204;53.896;11.432;2023-05-07T10:04:46;3.17;;;2.50;;
53315;SDS011;39204;53.896;11.432;2023-05-07T10:06:17;3.50;;;2.35;;
53315;SDS011;39204;53.896;11.432;2023-05-07T10:07:48;3.38;;;2.72;;
53315;SDS011;39204;53.896;11.432;2023-05-07T10:09:19;2.63;;;2.20;;
53315;SDS011;39204;53.896;11.432;2023-05-07T10:10:51;4.10;;;2.20;;
53315;SDS011;39204;53.896;11.432;2023-05-07T10:12:21;3.92;;;2.90;;
53315;SDS011;39204;53.896;11.432;2023-05-07T10:13:53;4.20;;;3.08;;
53315;SDS011;39204;53.896;11.432;2023-05-07T10:15:23;7.80;;;2.80;;
53315;SDS011;39204;53.896;11.432;2023-05-07T10:16:55;4.00;;;2.13;;
53315;SDS011;39204;53.896;11.432;2023-05-07T10:18:26;4.05;;;2.20;;
53315;SDS011;39204;53.896;11.432;2023-05-07T10:19:59;3.88;;;2.33;;
53315;SDS011;39204;53.896;11.432;2023-05-07T10:21:30;3.25;;;2.03;;
53315;SDS011;39204;53.896;11.432;2023-05-07T10:23:05;3.00;;;2.47;;
53315;SDS011;39204;53.896;11.432;2023-05-07T10:24:35;2.72;;;2.47;;
53315;SDS011;39204;53.896;11.432;2023-05-07T10:26:07;3.13;;;2.50;;
53315;SDS011;39204;53.896;11.432;2023-05-07T10:27:38;3.20;;;2.58;;
53315;SDS011;39204;53.896;11.432;2023-05-07T10:33:03;3.85;;;2.40;;
53315;SDS011;39204;53.896;11.432;2023-05-07T10:34:36;4.00;;;2.20;;
53315;SDS011;39204;53.896;11.432;2023-05-07T10:36:10;4.05;;;2.08;;
53315;SDS011;39204;53.896;11.432;2023-05-07T10:37:41;4.43;;;2.22;;
53315;SDS011;39204;53.896;11.432;2023-05-07T10:39:11;4.68;;;2.80;;
53315;SDS011;39204;53.896;11.432;2023-05-07T10:40:43;4.95;;;2.22;;
53315;SDS011;39204;53.896;11.432;2023-05-07T10:42:14;4.82;;;2.40;;
53315;SDS011;39204;53.896;11.432;2023-05-07T10:43:45;3.30;;;2.05;;
53315;SDS011;39204;53.896;11.432;2023-05-07T10:45:15;4.57;;;2.20;;
53315;SDS011;39204;53.896;11.432;2023-05-07T10:47:02;2.60;;;1.90;;
53315;SDS011;39204;53.896;11.432;2023-05-07T10:48:34;5.78;;;2.40;;
53315;SDS011;39204;53.896;11.432;2023-05-07T10:50:30;3.22;;;2.25;;
53315;SDS011;39204;53.896;11.432;2023-05-07T10:55:39;4.78;;;2.20;;
53315;SDS011;39204;53.896;11.432;2023-05-07T10:57:52;5.22;;;2.35;;
53315;SDS011;39204;53.896;11.432;2023-05-07T11:00:55;3.63;;;2.17;;
53315;SDS011;39204;53.896;11.432;2023-05-07T11:03:04;3.75;;;2.22;;
53315;SDS011;39204;53.896;11.432;2023-05-07T11:04:29;3.20;;;2.20;;
53315;SDS011;39204;53.896;11.432;2023-05-07T11:06:14;3.53;;;2.15;;
53315;SDS011;39204;53.896;11.432;2023-05-07T11:07:53;3.20;;;2.22;;
53315;SDS011;39204;53.896;11.432;2023-05-07T11:09:53;8.98;;;2.20;;
53315;SDS011;39204;53.896;11.432;2023-05-07T11:13:17;3.08;;;2.17;;
53315;SDS011;39204;53.896;11.432;2023-05-07T11:14:48;3.08;;;2.20;;
53315;SDS011;39204;53.896;11.432;2023-05-07T11:16:20;3.58;;;2.20;;
53315;SDS011;39204;53.896;11.432;2023-05-07T11:17:55;4.93;;;2.25;;
53315;SDS011;39204;53.896;11.432;2023-05-07T11:21:38;2.47;;;1.90;;
53315;SDS011;39204;53.896;11.432;2023-05-07T11:23:54;3.55;;;2.00;;
53315;SDS011;39204;53.896;11.432;2023-05-07T11:25:03;5.00;;;2.33;;
53315;SDS011;39204;53.896;11.432;2023-05-07T11:26:44;3.33;;;1.77;;
53315;SDS011;39204;53.896;11.432;2023-05-07T11:28:18;1.98;;;1.75;;
53315;SDS011;39204;53.896;11.432;2023-05-07T11:29:49;2.38;;;2.00;;
53315;SDS011;39204;53.896;11.432;2023-05-07T11:31:21;3.42;;;1.80;;
53315;SDS011;39204;53.896;11.432;2023-05-07T11:32:53;3.13;;;2.30;;
53315;SDS011;39204;53.896;11.432;2023-05-07T11:34:24;2.78;;;2.58;;
53315;SDS011;39204;53.896;11.432;2023-05-07T11:35:56;2.50;;;2.10;;
53315;SDS011;39204;53.896;11.432;2023-05-07T11:37:27;2.25;;;2.05;;
53315;SDS011;39204;53.896;11.432;2023-05-07T11:38:59;3.97;;;2.13;;
53315;SDS011;39204;53.896;11.432;2023-05-07T11:40:29;2.60;;;1.80;;
53315;SDS011;39204;53.896;11.432;2023-05-07T11:42:00;3.40;;;2.05;;
53315;SDS011;39204;53.896;11.432;2023-05-07T11:43:31;2.65;;;2.00;;
53315;SDS011;39204;53.896;11.432;2023-05-07T11:45:03;3.28;;;2.00;;
53315;SDS011;39204;53.896;11.432;2023-05-07T11:46:35;4.03;;;2.00;;
53315;SDS011;39204;53.896;11.432;2023-05-07T11:48:06;3.67;;;2.08;;
53315;SDS011;39204;53.896;11.432;2023-05-07T11:49:36;2.58;;;2.03;;
53315;SDS011;39204;53.896;11.432;2023-05-07T11:51:07;3.13;;;1.80;;
53315;SDS011;39204;53.896;11.432;2023-05-07T11:52:49;3.83;;;1.85;;
53315;SDS011;39204;53.896;11.432;2023-05-07T11:54:20;2.55;;;1.98;;
53315;SDS011;39204;53.896;11.432;2023-05-07T11:55:55;2.70;;;2.00;;
53315;SDS011;39204;53.896;11.432;2023-05-07T11:57:26;4.72;;;1.95;;
53315;SDS011;39204;53.896;11.432;2023-05-07T11:58:57;2.65;;;1.92;;
53315;SDS011;39204;53.896;11.432;2023-05-07T12:00:27;2.80;;;2.25;;
53315;SDS011;39204;53.896;11.432;2023-05-07T12:01:57;3.85;;;2.10;;
53315;SDS011;39204;53.896;11.432;2023-05-07T12:03:29;3.22;;;2.00;;
53315;SDS011;39204;53.896;11.432;2023-05-07T12:05:00;3.00;;;2.30;;
53315;SDS011;39204;53.896;11.432;2023-05-07T12:06:30;2.80;;;2.17;;
53315;SDS011;39204;53.896;11.432;2023-05-07T12:08:00;2.63;;;2.05;;
53315;SDS011;39204;53.896;11.432;2023-05-07T12:09:32;4.07;;;2.15;;
53315;SDS011;39204;53.896;11.432;2023-05-07T12:11:03;5.10;;;2.13;;
53315;SDS011;39204;53.896;11.432;2023-05-07T12:12:38;3.40;;;1.95;;
53315;SDS011;39204;53.896;11.432;2023-05-07T12:14:11;3.55;;;2.40;;
53315;SDS011;39204;53.896;11.432;2023-05-07T12:15:42;5.45;;;2.25;;
53315;SDS011;39204;53.896;11.432;2023-05-07T12:17:13;3.22;;;2.20;;
53315;SDS011;39204;53.896;11.432;2023-05-07T12:18:44;4.80;;;2.10;;
53315;SDS011;39204;53.896;11.432;2023-05-07T12:20:15;3.38;;;2.05;;
53315;SDS011;39204;53.896;11.432;2023-05-07T12:21:48;2.65;;;2.25;;
53315;SDS011;39204;53.896;11.432;2023-05-07T12:23:19;6.35;;;2.70;;
53315;SDS011;39204;53.896;11.432;2023-05-07T12:24:56;3.17;;;2.05;;
53315;SDS011;39204;53.896;11.432;2023-05-07T12:26:27;9.07;;;2.78;;
53315;SDS011;39204;53.896;11.432;2023-05-07T12:27:59;3.42;;;2.38;;
53315;SDS011;39204;53.896;11.432;2023-05-07T12:29:30;3.33;;;2.40;;
53315;SDS011;39204;53.896;11.432;2023-05-07T12:31:01;3.47;;;2.33;;
53315;SDS011;39204;53.896;11.432;2023-05-07T12:32:31;6.03;;;2.47;;
53315;SDS011;39204;53.896;11.432;2023-05-07T12:34:06;7.72;;;2.22;;
53315;SDS011;39204;53.896;11.432;2023-05-07T12:35:39;3.28;;;2.10;;
53315;SDS011;39204;53.896;11.432;2023-05-07T12:37:11;3.15;;;2.10;;
53315;SDS011;39204;53.896;11.432;2023-05-07T12:38:42;2.92;;;2.25;;
53315;SDS011;39204;53.896;11.432;2023-05-07T12:40:13;5.20;;;2.35;;
53315;SDS011;39204;53.896;11.432;2023-05-07T12:41:56;4.30;;;2.50;;
53315;SDS011;39204;53.896;11.432;2023-05-07T12:43:31;3.63;;;2.25;;
53315;SDS011;39204;53.896;11.432;2023-05-07T12:45:10;3.22;;;2.00;;
53315;SDS011;39204;53.896;11.432;2023-05-07T12:48:11;2.60;;;2.15;;
53315;SDS011;39204;53.896;11.432;2023-05-07T12:49:42;3.20;;;2.70;;
53315;SDS011;39204;53.896;11.432;2023-05-07T12:51:13;5.35;;;2.28;;
53315;SDS011;39204;53.896;11.432;2023-05-07T12:52:45;5.82;;;2.30;;
53315;SDS011;39204;53.896;11.432;2023-05-07T12:54:33;2.22;;;1.95;;
53315;SDS011;39204;53.896;11.432;2023-05-07T12:56:04;2.85;;;2.20;;
53315;SDS011;39204;53.896;11.432;2023-05-07T12:57:38;3.45;;;2.33;;
53315;SDS011;39204;53.896;11.432;2023-05-07T12:59:10;6.03;;;2.47;;
53315;SDS011;39204;53.896;11.432;2023-05-07T13:00:40;3.70;;;2.53;;
53315;SDS011;39204;53.896;11.432;2023-05-07T13:02:13;8.80;;;2.38;;
53315;SDS011;39204;53.896;11.432;2023-05-07T13:03:43;3.78;;;2.20;;
53315;SDS011;39204;53.896;11.432;2023-05-07T13:05:18;5.68;;;2.60;;
53315;SDS011;39204;53.896;11.432;2023-05-07T13:06:49;4.15;;;2.47;;
53315;SDS011;39204;53.896;11.432;2023-05-07T13:08:29;4.72;;;2.60;;
53315;SDS011;39204;53.896;11.432;2023-05-07T13:10:04;3.75;;;2.35;;
53315;SDS011;39204;53.896;11.432;2023-05-07T13:11:35;5.32;;;2.50;;
53315;SDS011;39204;53.896;11.432;2023-05-07T13:13:05;3.13;;;2.20;;
53315;SDS011;39204;53.896;11.432;2023-05-07T13:14:36;4.00;;;2.45;;
53315;SDS011;39204;53.896;11.432;2023-05-07T13:16:07;3.13;;;2.50;;
53315;SDS011;39204;53.896;11.432;2023-05-07T13:17:39;3.65;;;2.60;;
53315;SDS011;39204;53.896;11.432;2023-05-07T13:19:09;7.28;;;2.55;;
53315;SDS011;39204;53.896;11.432;2023-05-07T13:20:40;3.65;;;2.42;;
53315;SDS011;39204;53.896;11.432;2023-05-07T13:22:10;4.93;;;2.55;;
53315;SDS011;39204;53.896;11.432;2023-05-07T13:23:41;2.75;;;2.22;;
53315;SDS011;39204;53.896;11.432;2023-05-07T13:25:11;3.40;;;2.47;;
53315;SDS011;39204;53.896;11.432;2023-05-07T13:26:41;3.25;;;2.80;;
53315;SDS011;39204;53.896;11.432;2023-05-07T13:28:12;3.80;;;2.40;;
53315;SDS011;39204;53.896;11.432;2023-05-07T13:29:42;4.13;;;2.17;;
53315;SDS011;39204;53.896;11.432;2023-05-07T13:31:12;5.97;;;2.92;;
53315;SDS011;39204;53.896;11.432;2023-05-07T13:32:43;5.03;;;2.63;;
53315;SDS011;39204;53.896;11.432;2023-05-07T13:34:13;2.72;;;2.30;;
53315;SDS011;39204;53.896;11.432;2023-05-07T13:35:44;3.03;;;2.42;;
53315;SDS011;39204;53.896;11.432;2023-05-07T13:37:14;4.03;;;2.28;;
53315;SDS011;39204;53.896;11.432;2023-05-07T13:38:45;3.60;;;2.55;;
53315;SDS011;39204;53.896;11.432;2023-05-07T13:40:16;3.55;;;2.25;;
53315;SDS011;39204;53.896;11.432;2023-05-07T13:41:46;4.55;;;2.30;;
53315;SDS011;39204;53.896;11.432;2023-05-07T13:43:16;3.17;;;2.58;;
53315;SDS011;39204;53.896;11.432;2023-05-07T13:44:48;4.82;;;2.33;;
53315;SDS011;39204;53.896;11.432;2023-05-07T13:46:18;4.22;;;2.58;;
53315;SDS011;39204;53.896;11.432;2023-05-07T13:47:49;4.50;;;2.83;;
53315;SDS011;39204;53.896;11.432;2023-05-07T13:49:19;4.28;;;2.50;;
53315;SDS011;39204;53.896;11.432;2023-05-07T13:50:49;2.97;;;2.40;;
53315;SDS011;39204;53.896;11.432;2023-05-07T13:52:20;2.63;;;2.30;;
53315;SDS011;39204;53.896;11.432;2023-05-07T13:53:50;3.20;;;2.47;;
53315;SDS011;39204;53.896;11.432;2023-05-07T13:55:23;4.00;;;2.80;;
53315;SDS011;39204;53.896;11.432;2023-05-07T13:56:54;5.28;;;2.80;;
53315;SDS011;39204;53.896;11.432;2023-05-07T13:58:24;4.72;;;2.83;;
53315;SDS011;39204;53.896;11.432;2023-05-07T13:59:54;3.88;;;2.78;;
53315;SDS011;39204;53.896;11.432;2023-05-07T14:01:25;3.47;;;2.38;;
53315;SDS011;39204;53.896;11.432;2023-05-07T14:02:56;4.15;;;2.67;;
53315;SDS011;39204;53.896;11.432;2023-05-07T14:04:26;5.20;;;2.67;;
53315;SDS011;39204;53.896;11.432;2023-05-07T14:05:57;6.15;;;2.20;;
53315;SDS011;39204;53.896;11.432;2023-05-07T14:07:27;4.57;;;2.40;;
53315;SDS011;39204;53.896;11.432;2023-05-07T14:08:58;4.10;;;2.63;;
53315;SDS011;39204;53.896;11.432;2023-05-07T14:10:28;2.75;;;2.33;;
53315;SDS011;39204;53.896;11.432;2023-05-07T14:11:59;4.18;;;2.40;;
53315;SDS011;39204;53.896;11.432;2023-05-07T14:13:29;3.45;;;2.47;;
53315;SDS011;39204;53.896;11.432;2023-05-07T14:15:00;3.75;;;2.33;;
53315;SDS011;39204;53.896;11.432;2023-05-07T14:16:31;8.25;;;2.33;;
53315;SDS011;39204;53.896;11.432;2023-05-07T14:18:01;3.20;;;2.17;;
53315;SDS011;39204;53.896;11.432;2023-05-07T14:19:31;4.47;;;2.58;;
53315;SDS011;39204;53.896;11.432;2023-05-07T14:21:02;6.68;;;2.95;;
53315;SDS011;39204;53.896;11.432;2023-05-07T14:22:32;3.63;;;2.58;;
53315;SDS011;39204;53.896;11.432;2023-05-07T14:24:02;5.22;;;2.53;;
53315;SDS011;39204;53.896;11.432;2023-05-07T14:25:33;6.47;;;2.75;;
53315;SDS011;39204;53.896;11.432;2023-05-07T14:27:03;4.82;;;2.75;;
53315;SDS011;39204;53.896;11.432;2023-05-07T14:28:33;5.95;;;3.00;;
53315;SDS011;39204;53.896;11.432;2023-05-07T14:30:04;5.50;;;2.72;;
53315;SDS011;39204;53.896;11.432;2023-05-07T14:31:35;5.25;;;2.78;;
53315;SDS011;39204;53.896;11.432;2023-05-07T14:33:05;4.25;;;2.40;;
53315;SDS011;39204;53.896;11.432;2023-05-07T14:34:35;5.18;;;2.85;;
53315;SDS011;39204;53.896;11.432;2023-05-07T14:36:06;4.82;;;2.83;;